Sanpo Maru No.5 — JL6343 — position and weather

sailwx.info

Track history (hours):
 
Tides and Currents Weather Stations Pressure Air Temp Water Temp Dewpoint Dewpoint Depression Visibility Wind Speed Wind Dir Waves Ship Positions

Sanpo Maru No.5

Last reported at 2016-Nov-26 03:33 UTC. Time now 2016-Dec-03 15:40 UTC.
Position N 35°15' E 139°46'.

Length 71 m; draft 4.5 m.

Type: Ship. MMSI: 431500283.

Date/timePositionNaut miles runAvg speedWind from/ knotsBaromVisibWave heightAir tempDewpointWater temp
2016-Nov-26 03:33N 35°15' E 139°46'10 9.7
2016-Nov-26 02:33N 35°25' E 139°43'1010.3
2016-Nov-26 01:33N 35°30' E 139°54'2 0.2
2016-Nov-25 17:08N 35°30' E 139°56'810.7
2016-Nov-25 16:23N 35°25' E 139°48'810.3
2016-Nov-25 15:33N 35°17' E 139°45'1010.3
2016-Nov-25 14:33N 35°07' E 139°45'  
2016-Nov-22 10:33N 35°25' E 139°43'1110.5
2016-Nov-22 09:32N 35°31' E 139°54'2 0.3
2016-Nov-22 02:33N 35°30' E 139°52'5 1.8
2016-Nov-21 23:32N 35°30' E 139°45'3 1.7
2016-Nov-21 21:32N 35°29' E 139°49'0 0.0
2016-Nov-21 17:32N 35°29' E 139°49'0 0.0
2016-Nov-21 14:23N 35°29' E 139°49'0 0.0
2016-Nov-21 13:23N 35°29' E 139°49'0 0.0
2016-Nov-21 12:32N 35°29' E 139°49'0 0.0
2016-Nov-21 11:32N 35°29' E 139°49'0 0.0
2016-Nov-21 10:29N 35°29' E 139°49'0 0.0
2016-Nov-21 07:14N 35°29' E 139°49'0 0.0
2016-Nov-21 05:32N 35°29' E 139°49'0 0.0
2016-Nov-21 04:11N 35°29' E 139°49'12 7.6
2016-Nov-21 02:33N 35°17' E 139°46'244 5.4
2016-Nov-19 05:03N 34°14' E 134°59'16 9.9
2016-Nov-19 03:27N 34°30' E 135°02'7 8.0
2016-Nov-19 02:33N 34°37' E 135°01'8 8.0
2016-Nov-19 01:32N 34°38' E 134°52'11 1.0
2016-Nov-18 14:33N 34°36' E 135°04'2110.7
2016-Nov-18 12:33N 34°15' E 134°59'  
Track history (hours):
 
Tides and Currents Weather Stations Pressure Air Temp Water Temp Dewpoint Dewpoint Depression Visibility Wind Speed Wind Dir Waves Ship Positions

Sanpo Maru No.5

Last reported at 2016-Nov-26 03:33 UTC. Time now 2016-Dec-03 15:40 UTC.
Position N 35°15' E 139°46'.

Length 71 m; draft 4.5 m.

Type: Ship. MMSI: 431500283.

Date/timePositionNaut miles runAvg speedWind from/ knotsBaromVisibWave heightAir tempDewpointWater temp
2016-Nov-26 03:33N 35°15' E 139°46'10 9.7
2016-Nov-26 02:33N 35°25' E 139°43'1010.3
2016-Nov-26 01:33N 35°30' E 139°54'2 0.2
2016-Nov-25 17:08N 35°30' E 139°56'810.7
2016-Nov-25 16:23N 35°25' E 139°48'810.3
2016-Nov-25 15:33N 35°17' E 139°45'1010.3
2016-Nov-25 14:33N 35°07' E 139°45'  
2016-Nov-22 10:33N 35°25' E 139°43'1110.5
2016-Nov-22 09:32N 35°31' E 139°54'2 0.3
2016-Nov-22 02:33N 35°30' E 139°52'5 1.8
2016-Nov-21 23:32N 35°30' E 139°45'3 1.7
2016-Nov-21 21:32N 35°29' E 139°49'0 0.0
2016-Nov-21 17:32N 35°29' E 139°49'0 0.0
2016-Nov-21 14:23N 35°29' E 139°49'0 0.0
2016-Nov-21 13:23N 35°29' E 139°49'0 0.0
2016-Nov-21 12:32N 35°29' E 139°49'0 0.0
2016-Nov-21 11:32N 35°29' E 139°49'0 0.0
2016-Nov-21 10:29N 35°29' E 139°49'0 0.0
2016-Nov-21 07:14N 35°29' E 139°49'0 0.0
2016-Nov-21 05:32N 35°29' E 139°49'0 0.0
2016-Nov-21 04:11N 35°29' E 139°49'12 7.6
2016-Nov-21 02:33N 35°17' E 139°46'244 5.4
2016-Nov-19 05:03N 34°14' E 134°59'16 9.9
2016-Nov-19 03:27N 34°30' E 135°02'7 8.0
2016-Nov-19 02:33N 34°37' E 135°01'8 8.0
2016-Nov-19 01:32N 34°38' E 134°52'11 1.0
2016-Nov-18 14:33N 34°36' E 135°04'2110.7
2016-Nov-18 12:33N 34°15' E 134°59'  

Dump ship's entire track history